createdAt,value
2023-09-21T00:00:14.536Z,0
2023-09-21T00:01:15.082Z,0
2023-09-21T00:02:15.984Z,0
2023-09-21T00:03:17.046Z,0
2023-09-21T00:04:18.038Z,0
2023-09-21T00:05:19.048Z,0
2023-09-21T00:06:20.093Z,0
2023-09-21T00:07:21.006Z,0
2023-09-21T00:08:22.051Z,0
2023-09-21T00:09:23.076Z,0
2023-09-21T00:10:24.087Z,0
2023-09-21T00:11:25.011Z,0
2023-09-21T00:12:25.998Z,0
2023-09-21T00:13:27.015Z,0
2023-09-21T00:14:28.013Z,0
2023-09-21T00:15:29.211Z,0
2023-09-21T00:16:30.081Z,0
2023-09-21T00:17:31.031Z,0
2023-09-21T00:18:32.263Z,0
2023-09-21T00:19:33.102Z,0
2023-09-21T00:20:34.105Z,0
2023-09-21T00:21:35.030Z,0
2023-09-21T00:22:36.018Z,0
2023-09-21T00:23:37.070Z,0
2023-09-21T00:24:38.031Z,0
2023-09-21T00:25:39.081Z,0
2023-09-21T00:26:40.399Z,0
2023-09-21T00:27:41.035Z,0
2023-09-21T00:28:42.329Z,0
2023-09-21T00:29:43.062Z,0
2023-09-21T00:30:44.538Z,0
2023-09-21T00:31:45.275Z,0
2023-09-21T00:32:46.354Z,0
2023-09-21T00:33:47.368Z,0
2023-09-21T00:34:49.044Z,0
2023-09-21T00:35:49.833Z,0
2023-09-21T00:36:50.045Z,0
2023-09-21T00:37:51.046Z,0
2023-09-21T00:38:52.147Z,0
2023-09-21T00:39:53.119Z,0
2023-09-21T00:40:54.137Z,0
2023-09-21T00:41:55.087Z,0
2023-09-21T00:42:56.055Z,0
2023-09-21T00:43:57.062Z,0
2023-09-21T00:44:58.147Z,0
2023-09-21T00:45:59.342Z,0
2023-09-21T00:47:00.068Z,0
2023-09-21T00:48:01.118Z,0
2023-09-21T00:49:02.068Z,0
2023-09-21T00:50:03.072Z,0
2023-09-21T00:51:04.173Z,0
2023-09-21T00:52:05.062Z,0
2023-09-21T00:53:06.063Z,0
2023-09-21T00:54:07.102Z,0
2023-09-21T00:55:08.066Z,0
2023-09-21T00:56:09.225Z,0
2023-09-21T00:57:10.123Z,0
2023-09-21T00:58:11.065Z,0
2023-09-21T00:59:12.054Z,0
2023-09-21T01:00:13.270Z,0
2023-09-21T01:01:14.220Z,0
2023-09-21T01:02:15.069Z,0
2023-09-21T01:03:16.164Z,0
2023-09-21T01:04:17.265Z,0
2023-09-21T01:05:18.072Z,0
2023-09-21T01:06:19.141Z,0
2023-09-21T01:07:20.241Z,0
2023-09-21T01:08:21.059Z,0
2023-09-21T01:09:22.106Z,0
2023-09-21T01:10:23.122Z,0
2023-09-21T01:11:24.104Z,0
2023-09-21T01:12:25.069Z,0
2023-09-21T01:13:26.079Z,0
2023-09-21T01:14:27.074Z,0
2023-09-21T01:15:28.271Z,0
2023-09-21T01:16:29.219Z,0
2023-09-21T01:17:30.098Z,0
2023-09-21T01:18:31.201Z,0
2023-09-21T01:19:32.103Z,0
2023-09-21T01:20:33.098Z,0
2023-09-21T01:21:34.135Z,0
2023-09-21T01:22:35.091Z,0
2023-09-21T01:23:36.089Z,0
2023-09-21T01:24:37.103Z,0
2023-09-21T01:25:38.083Z,0
2023-09-21T01:26:39.140Z,0
2023-09-21T01:27:40.104Z,0
2023-09-21T01:28:41.260Z,0
2023-09-21T01:29:42.126Z,0
2023-09-21T01:30:43.304Z,0
2023-09-21T01:31:44.225Z,0
2023-09-21T01:32:45.271Z,0
2023-09-21T01:33:46.157Z,0
2023-09-21T01:34:47.101Z,0
2023-09-21T01:35:48.124Z,0
2023-09-21T01:36:49.136Z,0
2023-09-21T01:37:50.140Z,0
2023-09-21T01:38:51.121Z,0
2023-09-21T01:39:52.150Z,0
2023-09-21T01:40:53.129Z,0
2023-09-21T01:41:54.353Z,0
2023-09-21T01:42:55.112Z,0
2023-09-21T01:43:56.101Z,0
2023-09-21T01:44:57.171Z,0
2023-09-21T01:45:58.335Z,0
2023-09-21T01:46:59.142Z,0
2023-09-21T01:48:00.165Z,0
2023-09-21T01:49:01.130Z,0
2023-09-21T01:50:02.177Z,0
2023-09-21T01:51:03.168Z,0
2023-09-21T01:52:04.119Z,0
2023-09-21T01:53:05.108Z,0
2023-09-21T01:54:06.156Z,0
2023-09-21T01:55:07.160Z,0
2023-09-21T01:56:08.128Z,0
2023-09-21T01:57:09.181Z,0
2023-09-21T01:58:10.145Z,0
2023-09-21T01:59:11.130Z,0
2023-09-21T02:00:12.393Z,0
2023-09-21T02:01:13.155Z,0
2023-09-21T02:02:14.189Z,0
2023-09-21T02:03:15.244Z,0
2023-09-21T02:04:16.274Z,0
2023-09-21T02:05:17.202Z,0
2023-09-21T02:06:18.172Z,0
2023-09-21T02:07:19.106Z,0
2023-09-21T02:08:20.336Z,0
2023-09-21T02:09:21.242Z,0
2023-09-21T02:10:22.159Z,0
2023-09-21T02:11:23.155Z,0
2023-09-21T02:12:24.135Z,0
2023-09-21T02:13:25.118Z,0
2023-09-21T02:14:26.171Z,0
2023-09-21T02:15:27.334Z,0
2023-09-21T02:16:28.146Z,0
2023-09-21T02:17:29.199Z,0
2023-09-21T02:18:30.171Z,0
2023-09-21T02:19:31.149Z,0
2023-09-21T02:20:32.193Z,0
2023-09-21T02:21:33.150Z,0
2023-09-21T02:22:34.156Z,0
2023-09-21T02:23:35.142Z,0
2023-09-21T02:24:36.165Z,0
2023-09-21T02:25:37.186Z,0
2023-09-21T02:26:38.178Z,0
2023-09-21T02:27:39.134Z,0
2023-09-21T02:28:40.225Z,0
2023-09-21T02:29:41.272Z,0
2023-09-21T02:30:42.376Z,0
2023-09-21T02:31:43.172Z,0
2023-09-21T02:32:44.284Z,0
2023-09-21T02:33:45.293Z,0
2023-09-21T02:34:46.193Z,0
2023-09-21T02:35:47.273Z,0
2023-09-21T02:36:48.166Z,0
2023-09-21T02:37:49.158Z,0
2023-09-21T02:38:50.505Z,0
2023-09-21T02:39:51.193Z,0
2023-09-21T02:40:52.191Z,1.07
2023-09-21T02:41:53.209Z,2.52
2023-09-21T02:42:54.196Z,.35
2023-09-21T02:43:55.185Z,2.15
2023-09-21T02:44:56.214Z,.35
2023-09-21T02:45:57.345Z,.35
2023-09-21T02:46:58.171Z,.35
2023-09-21T02:47:59.315Z,0
2023-09-21T02:49:00.210Z,0
2023-09-21T02:50:01.191Z,0
2023-09-21T02:51:02.341Z,0
2023-09-21T02:52:03.177Z,.35
2023-09-21T02:53:04.200Z,.35
2023-09-21T02:54:05.267Z,0
2023-09-21T02:55:06.202Z,0
2023-09-21T02:56:07.193Z,.72
2023-09-21T02:57:08.214Z,.35
2023-09-21T02:58:09.196Z,.35
2023-09-21T02:59:10.247Z,0
2023-09-21T03:00:11.446Z,0
2023-09-21T03:01:12.295Z,2.15
2023-09-21T03:02:13.241Z,.35
2023-09-21T03:03:14.697Z,.35
2023-09-21T03:04:15.366Z,0
2023-09-21T03:05:16.222Z,0
2023-09-21T03:06:17.265Z,2.15
2023-09-21T03:07:18.193Z,0
2023-09-21T03:08:19.418Z,0
2023-09-21T03:09:20.275Z,0
2023-09-21T03:10:21.223Z,1.43
2023-09-21T03:11:22.206Z,.72
2023-09-21T03:12:23.205Z,2.15
2023-09-21T03:13:24.214Z,0
2023-09-21T03:14:25.204Z,1.43
2023-09-21T03:15:26.467Z,1.80
2023-09-21T03:16:27.212Z,1.07
2023-09-21T03:17:28.218Z,1.43
2023-09-21T03:18:29.526Z,0
2023-09-21T03:19:30.222Z,0
2023-09-21T03:20:31.221Z,2.52
2023-09-21T03:21:32.231Z,1.43
2023-09-21T03:22:33.229Z,1.07
2023-09-21T03:23:34.227Z,2.15
2023-09-21T03:24:35.226Z,.72
2023-09-21T03:25:36.221Z,0
2023-09-21T03:26:37.228Z,2.15
2023-09-21T03:27:38.204Z,2.15
2023-09-21T03:28:39.205Z,2.15
2023-09-21T03:29:40.265Z,1.07
2023-09-21T03:30:41.471Z,2.15
2023-09-21T03:31:42.215Z,.35
2023-09-21T03:32:43.318Z,1.07
2023-09-21T03:33:44.299Z,.35
2023-09-21T03:34:45.320Z,.35
2023-09-21T03:35:46.242Z,0
2023-09-21T03:36:47.238Z,0
2023-09-21T03:37:48.212Z,1.43
2023-09-21T03:38:49.258Z,1.43
2023-09-21T03:39:50.252Z,.35
2023-09-21T03:40:51.281Z,0
2023-09-21T03:41:52.282Z,1.80
2023-09-21T03:42:53.234Z,.35
2023-09-21T03:43:54.252Z,.72
2023-09-21T03:44:55.234Z,.72
2023-09-21T03:45:56.455Z,0
2023-09-21T03:46:57.245Z,0
2023-09-21T03:47:58.335Z,0
2023-09-21T03:48:59.363Z,0
2023-09-21T03:50:00.310Z,1.07
2023-09-21T03:51:01.276Z,0
2023-09-21T03:52:02.264Z,0
2023-09-21T03:53:03.236Z,.72
2023-09-21T03:54:04.298Z,.35
2023-09-21T03:55:05.273Z,1.07
2023-09-21T03:56:06.268Z,0
2023-09-21T03:57:07.298Z,0
2023-09-21T03:58:08.289Z,0
2023-09-21T03:59:09.245Z,1.80
2023-09-21T04:00:10.588Z,.35
2023-09-21T04:01:11.246Z,0
2023-09-21T04:02:12.254Z,1.43
2023-09-21T04:03:14.005Z,1.07
2023-09-21T04:04:14.422Z,.72
2023-09-21T04:05:15.283Z,1.43
2023-09-21T04:06:16.337Z,.72
2023-09-21T04:07:17.256Z,2.15
2023-09-21T04:08:18.260Z,1.43
2023-09-21T04:09:19.295Z,2.15
2023-09-21T04:10:20.314Z,1.07
2023-09-21T04:11:21.260Z,2.15
2023-09-21T04:12:22.285Z,2.15
2023-09-21T04:13:23.264Z,2.52
2023-09-21T04:14:24.290Z,2.15
2023-09-21T04:15:25.476Z,2.88
2023-09-21T04:16:26.287Z,1.80
2023-09-21T04:17:27.330Z,1.07
2023-09-21T04:18:28.458Z,2.88
2023-09-21T04:19:29.390Z,1.80
2023-09-21T04:20:30.322Z,1.07
2023-09-21T04:21:31.324Z,.35
2023-09-21T04:22:32.277Z,.72
2023-09-21T04:23:33.282Z,1.07
2023-09-21T04:24:34.376Z,2.88
2023-09-21T04:25:35.297Z,1.07
2023-09-21T04:26:36.273Z,1.80
2023-09-21T04:27:37.296Z,.35
2023-09-21T04:28:38.280Z,.35
2023-09-21T04:29:39.301Z,0
2023-09-21T04:30:40.504Z,0
2023-09-21T04:31:41.322Z,.35
2023-09-21T04:32:42.329Z,0
2023-09-21T04:33:43.367Z,1.43
2023-09-21T04:34:44.344Z,1.07
2023-09-21T04:35:45.424Z,.35
2023-09-21T04:36:46.292Z,1.07
2023-09-21T04:37:47.322Z,.35
2023-09-21T04:38:48.320Z,1.07
2023-09-21T04:39:49.305Z,1.43
2023-09-21T04:40:50.329Z,2.15
2023-09-21T04:41:51.321Z,0
2023-09-21T04:42:55.106Z,.35
2023-09-21T04:43:53.303Z,.35
2023-09-21T04:44:54.524Z,0
2023-09-21T04:45:55.552Z,2.52
2023-09-21T04:46:56.283Z,.35
2023-09-21T04:47:57.355Z,.35
2023-09-21T04:48:58.381Z,1.80
2023-09-21T04:49:59.351Z,0
2023-09-21T04:51:00.342Z,1.07
2023-09-21T04:52:01.301Z,.72
2023-09-21T04:53:02.331Z,0
2023-09-21T04:54:03.333Z,0
2023-09-21T04:55:04.365Z,.35
2023-09-21T04:56:05.295Z,.35
2023-09-21T04:57:06.350Z,.72
2023-09-21T04:58:07.325Z,0
2023-09-21T04:59:08.299Z,0
2023-09-21T05:00:09.577Z,0
2023-09-21T05:01:10.315Z,1.80
2023-09-21T05:02:11.335Z,2.52
2023-09-21T05:03:12.484Z,2.88
2023-09-21T05:04:13.509Z,1.80
2023-09-21T05:05:14.570Z,.72
2023-09-21T05:06:15.403Z,.35
2023-09-21T05:07:16.384Z,0
2023-09-21T05:08:17.377Z,1.07
2023-09-21T05:09:18.393Z,1.43
2023-09-21T05:10:19.416Z,0
2023-09-21T05:11:20.408Z,0
2023-09-21T05:12:21.387Z,0
2023-09-21T05:13:22.392Z,.35
2023-09-21T05:14:23.414Z,1.43
2023-09-21T05:15:24.723Z,0
2023-09-21T05:16:25.462Z,0
2023-09-21T05:17:26.409Z,0
2023-09-21T05:18:27.552Z,0
2023-09-21T05:19:28.402Z,.35
2023-09-21T05:20:29.398Z,.35
2023-09-21T05:21:30.419Z,.35
2023-09-21T05:22:31.451Z,0
2023-09-21T05:23:32.399Z,1.43
2023-09-21T05:24:33.406Z,.35
2023-09-21T05:25:34.431Z,1.43
2023-09-21T05:26:35.385Z,.35
2023-09-21T05:27:36.400Z,1.43
2023-09-21T05:28:37.429Z,.35
2023-09-21T05:29:38.428Z,0
2023-09-21T05:30:39.616Z,0
2023-09-21T05:31:40.458Z,.35
2023-09-21T05:32:41.462Z,.35
2023-09-21T05:33:42.645Z,.72
2023-09-21T05:34:43.544Z,1.07
2023-09-21T05:35:44.467Z,0
2023-09-21T05:36:45.529Z,0
2023-09-21T05:37:46.425Z,.35
2023-09-21T05:38:47.421Z,0
2023-09-21T05:39:48.420Z,0
2023-09-21T05:40:49.442Z,0
2023-09-21T05:41:50.463Z,0
2023-09-21T05:42:51.403Z,1.80
2023-09-21T05:43:52.418Z,.72
2023-09-21T05:44:53.453Z,2.15
2023-09-21T05:45:54.706Z,2.15
2023-09-21T05:46:55.416Z,1.43
2023-09-21T05:47:56.504Z,.72
2023-09-21T05:48:57.493Z,1.07
2023-09-21T05:49:58.444Z,1.43
2023-09-21T05:50:59.498Z,1.80
2023-09-21T05:52:00.422Z,.35
2023-09-21T05:53:01.491Z,1.43
2023-09-21T05:54:02.429Z,1.07
2023-09-21T05:55:03.428Z,.72
2023-09-21T05:56:04.433Z,0
2023-09-21T05:57:05.465Z,0
2023-09-21T05:58:06.452Z,0
2023-09-21T05:59:07.444Z,0
2023-09-21T06:00:08.644Z,0
2023-09-21T06:01:09.595Z,0
2023-09-21T06:02:10.444Z,.35
2023-09-21T06:03:11.564Z,2.15
2023-09-21T06:04:12.559Z,.35
2023-09-21T06:05:13.508Z,2.88
2023-09-21T06:06:14.503Z,2.52
2023-09-21T06:07:15.425Z,2.52
2023-09-21T06:08:16.457Z,1.80
2023-09-21T06:09:17.500Z,1.80
2023-09-21T06:10:18.457Z,1.80
2023-09-21T06:11:19.593Z,.35
2023-09-21T06:12:20.502Z,0
2023-09-21T06:13:21.447Z,0
2023-09-21T06:14:22.460Z,0
2023-09-21T06:15:23.710Z,1.43
2023-09-21T06:16:24.578Z,0
2023-09-21T06:17:25.487Z,0
2023-09-21T06:18:26.550Z,.35
2023-09-21T06:19:27.443Z,1.43
2023-09-21T06:20:28.467Z,1.80
2023-09-21T06:21:29.524Z,1.43
2023-09-21T06:22:30.485Z,0
2023-09-21T06:23:31.577Z,0
2023-09-21T06:24:32.616Z,0
2023-09-21T06:25:33.458Z,0
2023-09-21T06:26:34.516Z,1.07
2023-09-21T06:27:35.457Z,0
2023-09-21T06:28:36.460Z,1.07
2023-09-21T06:29:37.467Z,1.80
2023-09-21T06:30:38.697Z,1.07
2023-09-21T06:31:39.498Z,0
2023-09-21T06:32:40.587Z,.72
2023-09-21T06:33:41.537Z,1.43
2023-09-21T06:34:42.460Z,.35
2023-09-21T06:35:43.570Z,1.43
2023-09-21T06:36:44.536Z,.72
2023-09-21T06:37:45.560Z,1.43
2023-09-21T06:38:51.562Z,.35
2023-09-21T06:39:47.469Z,.35
2023-09-21T06:40:48.480Z,0
2023-09-21T06:41:49.517Z,.35
2023-09-21T06:42:50.489Z,0
2023-09-21T06:43:51.486Z,.35
2023-09-21T06:44:52.497Z,1.07
2023-09-21T06:45:53.701Z,.35
2023-09-21T06:46:54.605Z,1.43
2023-09-21T06:47:55.547Z,0
2023-09-21T06:48:59.116Z,0
2023-09-21T06:49:57.485Z,1.80
2023-09-21T06:50:58.538Z,1.43
2023-09-21T06:51:59.645Z,.72
2023-09-21T06:53:00.505Z,1.07
2023-09-21T06:54:01.527Z,0
2023-09-21T06:55:02.755Z,2.88
2023-09-21T06:56:03.537Z,1.80
2023-09-21T06:57:04.532Z,1.43
2023-09-21T06:58:05.484Z,.35
2023-09-21T06:59:06.637Z,1.43
2023-09-21T07:00:07.916Z,.72
2023-09-21T07:01:08.513Z,.35
2023-09-21T07:02:09.558Z,1.07
2023-09-21T07:03:10.722Z,1.43
2023-09-21T07:04:11.583Z,.35
2023-09-21T07:05:12.549Z,1.43
2023-09-21T07:06:13.807Z,.35
2023-09-21T07:07:14.712Z,.35
2023-09-21T07:08:15.603Z,0
2023-09-21T07:09:16.661Z,1.80
2023-09-21T07:10:17.692Z,0
2023-09-21T07:11:18.668Z,2.88
2023-09-21T07:12:21.318Z,1.80
2023-09-21T07:13:20.619Z,2.15
2023-09-21T07:14:21.628Z,.35
2023-09-21T07:15:22.933Z,1.43
2023-09-21T07:16:23.712Z,0
2023-09-21T07:17:24.653Z,1.07
2023-09-21T07:18:25.737Z,.72
2023-09-21T07:19:26.629Z,.35
2023-09-21T07:20:27.668Z,.72
2023-09-21T07:21:28.764Z,0
2023-09-21T07:22:29.667Z,2.88
2023-09-21T07:23:30.721Z,1.07
2023-09-21T07:24:31.712Z,.35
2023-09-21T07:25:32.692Z,.35
2023-09-21T07:26:33.762Z,.72
2023-09-21T07:27:34.677Z,2.88
2023-09-21T07:28:35.694Z,3.60
2023-09-21T07:29:36.626Z,.35
2023-09-21T07:30:37.825Z,1.07
2023-09-21T07:31:38.732Z,0
2023-09-21T07:32:39.551Z,3.60
2023-09-21T07:33:40.703Z,0
2023-09-21T07:34:41.690Z,1.43
2023-09-21T07:35:42.639Z,1.43
2023-09-21T07:36:43.745Z,1.07
2023-09-21T07:37:44.726Z,1.07
2023-09-21T07:38:45.942Z,.72
2023-09-21T07:39:46.633Z,2.15
2023-09-21T07:40:47.710Z,0
2023-09-21T07:41:48.859Z,0
2023-09-21T07:42:49.671Z,2.15
2023-09-21T07:43:50.692Z,1.43
2023-09-21T07:44:51.696Z,2.15
2023-09-21T07:45:52.921Z,1.43
2023-09-21T07:46:54.080Z,3.23
2023-09-21T07:47:54.690Z,1.07
2023-09-21T07:48:55.638Z,2.88
2023-09-21T07:49:56.520Z,.72
2023-09-21T07:50:57.623Z,0
2023-09-21T07:51:58.562Z,.72
2023-09-21T07:52:59.574Z,.35
2023-09-21T07:54:00.653Z,1.07
2023-09-21T07:55:01.681Z,.35
2023-09-21T07:56:02.696Z,.35
2023-09-21T07:57:03.781Z,2.15
2023-09-21T07:58:05.050Z,.35
2023-09-21T07:59:05.649Z,1.43
2023-09-21T08:00:06.848Z,1.43
2023-09-21T08:01:07.725Z,.35
2023-09-21T08:02:08.796Z,0
2023-09-21T08:03:09.838Z,3.60
2023-09-21T08:04:10.820Z,1.07
2023-09-21T08:05:12.013Z,1.07
2023-09-21T08:06:12.687Z,2.88
2023-09-21T08:07:13.856Z,1.43
2023-09-21T08:08:14.770Z,.72
2023-09-21T08:09:30.687Z,.35
2023-09-21T08:10:16.678Z,0
2023-09-21T08:11:17.668Z,1.43
2023-09-21T08:12:18.820Z,1.07
2023-09-21T08:13:19.698Z,0
2023-09-21T08:14:20.742Z,1.07
2023-09-21T08:15:21.971Z,1.43
2023-09-21T08:16:22.719Z,0
2023-09-21T08:17:23.797Z,0
2023-09-21T08:18:24.814Z,1.07
2023-09-21T08:19:25.680Z,0
2023-09-21T08:20:26.751Z,.72
2023-09-21T08:21:27.684Z,1.07
2023-09-21T08:22:28.774Z,3.23
2023-09-21T08:23:30.025Z,.35
2023-09-21T08:24:30.702Z,.35
2023-09-21T08:25:31.851Z,1.43
2023-09-21T08:26:32.741Z,3.95
2023-09-21T08:27:33.776Z,.72
2023-09-21T08:28:34.685Z,.72
2023-09-21T08:29:35.677Z,2.88
2023-09-21T08:30:39.314Z,2.88
2023-09-21T08:31:37.735Z,1.07
2023-09-21T08:32:38.792Z,1.07
2023-09-21T08:33:39.774Z,2.88
2023-09-21T08:34:40.694Z,1.43
2023-09-21T08:35:41.721Z,1.80
2023-09-21T08:36:42.681Z,1.80
2023-09-21T08:37:43.792Z,1.43
2023-09-21T08:38:44.994Z,2.88
2023-09-21T08:39:47.014Z,2.15
2023-09-21T08:40:46.703Z,2.88
2023-09-21T08:41:47.724Z,1.07
2023-09-21T08:42:48.753Z,1.43
2023-09-21T08:43:49.691Z,2.15
2023-09-21T08:44:50.871Z,1.07
2023-09-21T08:45:51.932Z,3.95
2023-09-21T08:46:52.760Z,1.43
2023-09-21T08:47:53.863Z,.35
2023-09-21T08:48:54.794Z,1.07
2023-09-21T08:49:55.745Z,2.88
2023-09-21T08:50:56.826Z,2.15
2023-09-21T08:51:57.766Z,2.52
2023-09-21T08:52:58.756Z,2.15
2023-09-21T08:53:59.847Z,0
2023-09-21T08:55:00.803Z,2.15
2023-09-21T08:56:01.725Z,3.95
2023-09-21T08:57:02.796Z,4.31
2023-09-21T08:58:03.821Z,3.95
2023-09-21T08:59:04.776Z,5.40
2023-09-21T09:00:05.973Z,5.03
2023-09-21T09:01:06.699Z,1.43
2023-09-21T09:02:07.800Z,2.52
2023-09-21T09:03:08.915Z,2.88
2023-09-21T09:04:09.998Z,3.95
2023-09-21T09:05:10.794Z,4.68
2023-09-21T09:06:11.760Z,2.15
2023-09-21T09:07:12.765Z,2.15
2023-09-21T09:08:13.793Z,3.60
2023-09-21T09:09:14.956Z,3.60
2023-09-21T09:10:15.736Z,5.03
2023-09-21T09:11:16.727Z,2.88
2023-09-21T09:12:17.837Z,4.68
2023-09-21T09:13:18.752Z,3.60
2023-09-21T09:14:19.771Z,5.40
2023-09-21T09:15:20.989Z,6.11
2023-09-21T09:16:21.811Z,7.19
2023-09-21T09:17:22.818Z,5.03
2023-09-21T09:18:23.834Z,5.76
2023-09-21T09:19:24.752Z,2.15
2023-09-21T09:20:25.800Z,2.52
2023-09-21T09:21:26.790Z,3.60
2023-09-21T09:22:27.744Z,3.95
2023-09-21T09:23:28.772Z,6.48
2023-09-21T09:24:29.906Z,2.88
2023-09-21T09:25:30.798Z,2.88
2023-09-21T09:26:31.791Z,5.76
2023-09-21T09:27:32.778Z,3.23
2023-09-21T09:28:33.820Z,6.11
2023-09-21T09:29:34.753Z,6.48
2023-09-21T09:30:36.043Z,2.15
2023-09-21T09:31:36.776Z,3.60
2023-09-21T09:32:37.796Z,4.68
2023-09-21T09:33:38.838Z,3.95
2023-09-21T09:34:39.803Z,6.11
2023-09-21T09:35:40.798Z,4.68
2023-09-21T09:36:41.770Z,6.11
2023-09-21T09:37:42.805Z,2.52
2023-09-21T09:38:44.092Z,4.68
2023-09-21T09:39:44.834Z,9.36
2023-09-21T09:40:45.917Z,4.68
2023-09-21T09:41:46.813Z,6.11
2023-09-21T09:42:47.948Z,3.95
2023-09-21T09:43:48.781Z,7.91
2023-09-21T09:44:49.774Z,8.27
2023-09-21T09:45:51.715Z,6.11
2023-09-21T09:46:51.761Z,4.68
2023-09-21T09:47:52.910Z,8.99
2023-09-21T09:48:53.781Z,6.11
2023-09-21T09:49:54.827Z,6.48
2023-09-21T09:50:55.800Z,2.15
2023-09-21T09:51:56.759Z,7.19
2023-09-21T09:52:57.768Z,4.68
2023-09-21T09:53:58.835Z,6.11
2023-09-21T09:54:59.895Z,4.68
2023-09-21T09:56:00.789Z,6.11
2023-09-21T09:57:01.813Z,2.88
2023-09-21T09:58:02.849Z,5.40
2023-09-21T09:59:03.818Z,3.95
2023-09-21T10:00:05.021Z,3.95
2023-09-21T10:01:05.845Z,3.60
2023-09-21T10:02:06.890Z,3.23
2023-09-21T10:03:07.969Z,4.68
2023-09-21T10:04:08.936Z,4.31
2023-09-21T10:05:09.833Z,3.23
2023-09-21T10:06:10.981Z,3.60
2023-09-21T10:07:12.034Z,5.03
2023-09-21T10:08:12.829Z,6.11
2023-09-21T10:09:13.891Z,5.40
2023-09-21T10:10:14.835Z,4.31
2023-09-21T10:11:15.787Z,2.88
2023-09-21T10:12:16.858Z,4.68
2023-09-21T10:13:17.955Z,2.15
2023-09-21T10:14:18.826Z,3.95
2023-09-21T10:15:20.046Z,4.68
2023-09-21T10:16:20.869Z,1.80
2023-09-21T10:17:21.814Z,3.23
2023-09-21T10:18:22.895Z,6.11
2023-09-21T10:19:23.830Z,3.23
2023-09-21T10:20:24.883Z,3.60
2023-09-21T10:21:25.961Z,2.52
2023-09-21T10:22:27.041Z,5.40
2023-09-21T10:23:27.796Z,1.07
2023-09-21T10:24:28.845Z,2.15
2023-09-21T10:25:29.944Z,1.80
2023-09-21T10:26:30.826Z,3.95
2023-09-21T10:27:31.888Z,1.80
2023-09-21T10:28:32.859Z,2.88
2023-09-21T10:29:33.910Z,2.88
2023-09-21T10:30:35.022Z,2.15
2023-09-21T10:31:35.905Z,4.31
2023-09-21T10:32:36.901Z,4.68
2023-09-21T10:33:37.843Z,2.88
2023-09-21T10:34:38.871Z,4.68
2023-09-21T10:35:39.969Z,4.68
2023-09-21T10:36:40.859Z,2.88
2023-09-21T10:37:41.883Z,4.68
2023-09-21T10:38:43.293Z,2.52
2023-09-21T10:39:43.873Z,6.11
2023-09-21T10:40:44.850Z,2.52
2023-09-21T10:41:45.976Z,1.80
2023-09-21T10:42:46.811Z,4.31
2023-09-21T10:43:47.819Z,6.83
2023-09-21T10:44:48.845Z,1.43
2023-09-21T10:45:50.069Z,3.60
2023-09-21T10:46:50.918Z,5.40
2023-09-21T10:47:51.860Z,2.52
2023-09-21T10:48:52.894Z,5.40
2023-09-21T10:49:53.918Z,2.88
2023-09-21T10:50:54.901Z,3.23
2023-09-21T10:51:55.827Z,2.88
2023-09-21T10:52:56.970Z,6.48
2023-09-21T10:53:57.837Z,2.88
2023-09-21T10:54:58.924Z,1.80
2023-09-21T10:55:59.885Z,2.15
2023-09-21T10:57:00.926Z,1.43
2023-09-21T10:58:01.888Z,1.80
2023-09-21T10:59:02.843Z,3.95
2023-09-21T11:01:04.961Z,2.52
2023-09-21T11:02:05.852Z,3.95
2023-09-21T11:03:06.971Z,5.03
2023-09-21T11:04:07.894Z,2.88
2023-09-21T11:05:08.864Z,1.43
2023-09-21T11:06:09.957Z,2.15
2023-09-21T11:07:10.871Z,3.60
2023-09-21T11:08:11.839Z,5.03
2023-09-21T11:09:12.873Z,4.68
2023-09-21T11:10:13.939Z,3.23
2023-09-21T11:11:14.886Z,2.15
2023-09-21T11:12:15.905Z,3.95
2023-09-21T11:13:16.829Z,3.95
2023-09-21T11:14:17.862Z,2.88
2023-09-21T11:15:19.564Z,1.80
2023-09-21T11:16:19.889Z,7.19
2023-09-21T11:17:20.862Z,6.48
2023-09-21T11:18:21.920Z,0
2023-09-21T11:19:22.882Z,3.60
2023-09-21T11:20:23.904Z,1.43
2023-09-21T11:21:24.870Z,2.15
2023-09-21T11:22:25.919Z,6.11
2023-09-21T11:23:26.880Z,2.88
2023-09-21T11:24:27.906Z,2.88
2023-09-21T11:25:28.881Z,6.83
2023-09-21T11:26:29.893Z,2.52
2023-09-21T11:27:30.928Z,2.88
2023-09-21T11:28:31.892Z,3.95
2023-09-21T11:29:32.895Z,5.40
2023-09-21T11:30:34.140Z,4.68
2023-09-21T11:31:34.898Z,5.40
2023-09-21T11:32:35.997Z,9.36
2023-09-21T11:33:36.899Z,9.36
2023-09-21T11:34:37.872Z,4.68
2023-09-21T11:35:38.886Z,5.40
2023-09-21T11:36:39.885Z,1.80
2023-09-21T11:37:40.910Z,6.83
2023-09-21T11:38:42.203Z,8.27
2023-09-21T11:39:42.928Z,3.60
2023-09-21T11:40:43.987Z,6.83
2023-09-21T11:41:44.977Z,6.48
2023-09-21T11:42:46.110Z,6.11
2023-09-21T11:43:46.900Z,3.23
2023-09-21T11:44:47.887Z,8.64
2023-09-21T11:45:49.267Z,7.91
2023-09-21T11:46:49.954Z,5.76
2023-09-21T11:47:50.968Z,3.95
2023-09-21T11:48:52.016Z,4.68
2023-09-21T11:49:52.915Z,3.60
2023-09-21T11:50:53.994Z,5.40
2023-09-21T11:51:54.988Z,3.60
2023-09-21T11:52:56.147Z,4.68
2023-09-21T11:53:56.810Z,5.76
2023-09-21T11:54:57.808Z,5.40
2023-09-21T11:55:58.790Z,2.88
2023-09-21T11:56:59.905Z,4.31
2023-09-21T11:58:00.886Z,3.60
2023-09-21T11:59:01.943Z,4.68
2023-09-21T12:00:04.129Z,5.40
2023-09-21T12:01:04.023Z,2.88
2023-09-21T12:02:04.896Z,5.76
2023-09-21T12:03:06.065Z,6.11
2023-09-21T12:04:06.944Z,2.15
2023-09-21T12:05:07.920Z,2.52
2023-09-21T12:06:08.938Z,2.88
2023-09-21T12:07:09.925Z,5.76
2023-09-21T12:08:10.956Z,1.80
2023-09-21T12:09:11.974Z,5.03
2023-09-21T12:10:12.944Z,3.23
2023-09-21T12:11:14.014Z,3.60
2023-09-21T12:12:15.062Z,3.23
2023-09-21T12:13:15.948Z,4.31
2023-09-21T12:14:17.009Z,5.40
2023-09-21T12:15:18.168Z,1.80
2023-09-21T12:16:18.886Z,2.15
2023-09-21T12:17:19.891Z,2.88
2023-09-21T12:18:22.634Z,.72
2023-09-21T12:19:21.979Z,4.31
2023-09-21T12:20:22.952Z,5.03
2023-09-21T12:21:23.935Z,6.11
2023-09-21T12:22:24.909Z,1.07
2023-09-21T12:23:25.952Z,2.88
2023-09-21T12:24:26.986Z,2.52
2023-09-21T12:25:27.959Z,3.23
2023-09-21T12:26:28.952Z,2.52
2023-09-21T12:27:29.974Z,2.52
2023-09-21T12:28:31.008Z,2.52
2023-09-21T12:29:32.048Z,1.07
2023-09-21T12:30:33.188Z,1.43
2023-09-21T12:31:49.103Z,2.15
2023-09-21T12:32:35.049Z,4.31
2023-09-21T12:33:43.517Z,1.07
2023-09-21T12:34:36.962Z,1.43
2023-09-21T12:35:38.028Z,5.03
2023-09-21T12:36:44.910Z,2.15
2023-09-21T12:37:39.945Z,2.15
2023-09-21T12:38:41.072Z,1.07
2023-09-21T12:39:41.941Z,1.07
2023-09-21T12:40:42.969Z,3.95
2023-09-21T12:41:44.028Z,3.95
2023-09-21T12:42:44.952Z,1.43
2023-09-21T12:43:46.316Z,2.52
2023-09-21T12:44:46.958Z,3.95
2023-09-21T12:45:48.130Z,5.03
2023-09-21T12:46:48.965Z,4.68
2023-09-21T12:47:49.947Z,1.43
2023-09-21T12:48:51.301Z,1.43
2023-09-21T12:49:51.961Z,2.88
2023-09-21T12:50:52.946Z,.35
2023-09-21T12:51:55.663Z,3.60
2023-09-21T12:52:54.942Z,1.07
2023-09-21T12:53:55.978Z,1.43
2023-09-21T12:54:56.942Z,3.23
2023-09-21T12:55:58.079Z,2.52
2023-09-21T12:56:59.012Z,.35
2023-09-21T12:58:00.015Z,2.15
2023-09-21T12:59:00.948Z,2.15
2023-09-21T13:00:04.923Z,2.15
2023-09-21T13:01:03.150Z,1.80
2023-09-21T13:02:04.002Z,1.43
2023-09-21T13:03:05.438Z,.35
2023-09-21T13:04:06.071Z,.35
2023-09-21T13:05:07.026Z,2.88
2023-09-21T13:06:08.038Z,1.07
2023-09-21T13:07:09.047Z,1.07
2023-09-21T13:08:10.001Z,1.07
2023-09-21T13:09:11.007Z,1.43
2023-09-21T13:10:12.084Z,3.23
2023-09-21T13:11:12.989Z,5.40
2023-09-21T13:12:14.065Z,1.43
2023-09-21T13:13:15.017Z,1.80
2023-09-21T13:14:15.951Z,1.43
2023-09-21T13:15:17.204Z,1.80
2023-09-21T13:16:18.097Z,2.15
2023-09-21T13:17:18.956Z,4.31
2023-09-21T13:18:21.780Z,1.07
2023-09-21T13:19:20.961Z,2.15
2023-09-21T13:20:21.987Z,3.95
2023-09-21T13:21:23.041Z,.35
2023-09-21T13:22:23.995Z,.35
2023-09-21T13:23:24.961Z,1.07
2023-09-21T13:24:26.045Z,1.43
2023-09-21T13:25:26.987Z,2.88
2023-09-21T13:26:28.021Z,3.95
2023-09-21T13:27:29.113Z,4.68
2023-09-21T13:28:30.014Z,0
2023-09-21T13:29:30.984Z,.35
2023-09-21T13:30:32.172Z,0
2023-09-21T13:31:32.962Z,1.80
2023-09-21T13:32:33.910Z,3.23
2023-09-21T13:33:34.880Z,.72
2023-09-21T13:34:38.564Z,1.43
2023-09-21T13:35:36.883Z,0
2023-09-21T13:36:38.027Z,0
2023-09-21T13:37:38.871Z,1.80
2023-09-21T13:38:39.861Z,1.07
2023-09-21T13:39:40.922Z,.35
2023-09-21T13:40:41.880Z,2.88
2023-09-21T13:41:43.033Z,1.80
2023-09-21T13:42:44.066Z,1.07
2023-09-21T13:43:44.872Z,0
2023-09-21T13:44:45.954Z,0
2023-09-21T13:45:47.042Z,3.23
2023-09-21T13:46:47.997Z,6.11
2023-09-21T13:47:48.930Z,1.43
2023-09-21T13:48:50.013Z,1.43
2023-09-21T13:49:51.005Z,3.23
2023-09-21T13:50:52.082Z,1.43
2023-09-21T13:51:53.088Z,4.31
2023-09-21T13:52:54.018Z,2.15
2023-09-21T13:53:55.011Z,1.43
2023-09-21T13:55:10.520Z,0
2023-09-21T13:55:57.005Z,1.43
2023-09-21T13:56:58.149Z,1.80
2023-09-21T13:57:59.026Z,1.80
2023-09-21T13:59:00.107Z,2.15
2023-09-21T14:00:01.488Z,2.15
2023-09-21T14:01:02.145Z,0
2023-09-21T14:02:03.157Z,.35
2023-09-21T14:03:04.194Z,1.07